Time;durP1;ratioP1;P1;durP2;ratioP2;P2;SDS_P1;SDS_P2;PMS_P1;PMS_P2;Temp;Humidity;BMP_temperature;BMP_pressure;BME280_temperature;BME280_humidity;BME280_pressure;Samples;Min_cycle;Max_cycle;Signal;HPM_P1;HPM_P2
2023/12/08 00:01:33;;;;;;;;;12.67;11.33;;;;;;;;5081426;28;45292;-78
2023/12/08 00:03:58;;;;;;;;;8.67;8.67;;;;;;;;5096181;27;47502;-78
2023/12/08 00:06:23;;;;;;;;;10.33;8.00;;;;;;;;5096149;27;45453;-77
2023/12/08 00:08:49;;;;;;;;;9.00;9.00;;;;;;;;5080461;28;45229;-78
2023/12/08 00:11:14;;;;;;;;;12.33;11.00;;;;;;;;5095861;27;47253;-78
2023/12/08 00:13:40;;;;;;;;;12.00;10.00;;;;;;;;5079768;27;45432;-77
2023/12/08 00:16:05;;;;;;;;;11.33;10.00;;;;;;;;5080514;27;45302;-77
2023/12/08 00:18:31;;;;;;;;;10.00;10.00;;;;;;;;5080995;27;45228;-78
2023/12/08 00:20:56;;;;;;;;;11.00;11.00;;;;;;;;5096178;27;46221;-77
2023/12/08 00:23:21;;;;;;;;;13.00;10.33;;;;;;;;5096586;27;48319;-77
2023/12/08 00:25:46;;;;;;;;;14.00;12.33;;;;;;;;5080309;28;45317;-77
2023/12/08 00:28:11;;;;;;;;;11.33;10.00;;;;;;;;5079718;27;45251;-77
2023/12/08 00:30:36;;;;;;;;;13.00;9.67;;;;;;;;5079823;27;45463;-78
2023/12/08 00:33:02;;;;;;;;;11.67;10.33;;;;;;;;5079941;27;45212;-78
2023/12/08 00:35:27;;;;;;;;;11.33;11.00;;;;;;;;5081988;27;45195;-77
2023/12/08 00:37:52;;;;;;;;;11.33;11.33;;;;;;;;5081267;28;45598;-78
2023/12/08 00:40:18;;;;;;;;;13.00;12.00;;;;;;;;5080079;27;45668;-77
2023/12/08 00:42:43;;;;;;;;;9.33;7.67;;;;;;;;5077297;28;47154;-78
2023/12/08 00:45:08;;;;;;;;;10.33;9.67;;;;;;;;5079951;28;45468;-78
2023/12/08 00:47:33;;;;;;;;;13.33;12.33;;;;;;;;5064738;27;45335;-77
2023/12/08 00:49:59;;;;;;;;;15.67;13.00;;;;;;;;5058128;28;45320;-78
2023/12/08 00:52:24;;;;;;;;;15.00;14.00;;;;;;;;5040666;28;46510;-77
2023/12/08 00:54:49;;;;;;;;;11.67;8.00;;;;;;;;5059217;28;45370;-77
2023/12/08 00:57:15;;;;;;;;;12.67;12.67;;;;;;;;5066159;28;45627;-78
2023/12/08 00:59:40;;;;;;;;;13.67;13.67;;;;;;;;5095487;27;46404;-77
2023/12/08 01:02:05;;;;;;;;;18.00;14.67;;;;;;;;5077973;28;47171;-77
2023/12/08 01:04:30;;;;;;;;;16.00;14.33;;;;;;;;5096762;27;45876;-77
2023/12/08 01:06:55;;;;;;;;;14.00;12.00;;;;;;;;5084313;27;45302;-77
2023/12/08 01:09:20;;;;;;;;;16.33;13.00;;;;;;;;5082857;28;45516;-79
2023/12/08 01:11:46;;;;;;;;;14.33;12.33;;;;;;;;5082937;27;45447;-77
2023/12/08 01:14:11;;;;;;;;;14.67;14.67;;;;;;;;5098329;27;45357;-77
2023/12/08 01:16:40;;;;;;;;;14.67;14.33;;;;;;;;5081138;28;45413;-77
2023/12/08 01:19:08;;;;;;;;;14.00;14.00;;;;;;;;5082283;28;45544;-77
2023/12/08 01:21:33;;;;;;;;;13.00;13.00;;;;;;;;5098162;27;47618;-78
2023/12/08 01:23:58;;;;;;;;;11.67;11.00;;;;;;;;5082659;27;45500;-78
2023/12/08 01:26:23;;;;;;;;;14.67;14.67;;;;;;;;5097137;27;45524;-77
2023/12/08 01:28:48;;;;;;;;;17.00;15.67;;;;;;;;5067317;28;45396;-77
2023/12/08 01:31:14;;;;;;;;;13.33;13.00;;;;;;;;5061268;28;45448;-77
2023/12/08 01:33:39;;;;;;;;;12.00;12.00;;;;;;;;5044606;28;45342;-77
2023/12/08 01:36:04;;;;;;;;;11.67;11.33;;;;;;;;5062554;28;45333;-77
2023/12/08 01:38:30;;;;;;;;;8.33;8.00;;;;;;;;5063202;28;45316;-77
2023/12/08 01:40:55;;;;;;;;;12.67;11.00;;;;;;;;5061493;28;46382;-77
2023/12/08 01:43:20;;;;;;;;;11.00;9.67;;;;;;;;5061858;28;45277;-77
2023/12/08 01:45:46;;;;;;;;;11.00;11.00;;;;;;;;5043703;28;45411;-77
2023/12/08 01:48:11;;;;;;;;;14.00;14.00;;;;;;;;5043221;28;45972;-77
2023/12/08 01:50:37;;;;;;;;;13.00;12.33;;;;;;;;5061320;28;46202;-77
2023/12/08 01:53:03;;;;;;;;;9.33;9.33;;;;;;;;5060898;28;46098;-77
2023/12/08 01:55:29;;;;;;;;;13.67;12.00;;;;;;;;5060200;28;45276;-77
2023/12/08 01:57:54;;;;;;;;;14.00;11.67;;;;;;;;5073701;28;46081;-77
2023/12/08 02:00:20;;;;;;;;;13.00;12.00;;;;;;;;5081690;27;45297;-77
2023/12/08 02:02:45;;;;;;;;;13.00;12.33;;;;;;;;5081689;27;45400;-78
2023/12/08 02:05:10;;;;;;;;;11.67;11.00;;;;;;;;5097481;27;45284;-77
2023/12/08 02:07:35;;;;;;;;;8.00;8.00;;;;;;;;5097545;27;47510;-77
2023/12/08 02:10:01;;;;;;;;;14.00;10.67;;;;;;;;5081493;27;46126;-77
2023/12/08 02:12:26;;;;;;;;;14.67;12.33;;;;;;;;5081703;27;45267;-77
2023/12/08 02:14:52;;;;;;;;;14.33;14.33;;;;;;;;5097590;27;45334;-76
2023/12/08 02:17:26;;;;;;;;;15.67;14.67;;;;;;;;5080914;27;45224;-77
2023/12/08 02:19:51;;;;;;;;;13.67;13.00;;;;;;;;5081384;28;45472;-78
2023/12/08 02:22:17;;;;;;;;;14.00;12.00;;;;;;;;5081286;28;45781;-77
2023/12/08 02:24:42;;;;;;;;;14.67;14.00;;;;;;;;5097231;27;45455;-77
2023/12/08 02:27:10;;;;;;;;;12.33;12.33;;;;;;;;5097041;27;47130;-77
2023/12/08 02:29:35;;;;;;;;;13.33;12.33;;;;;;;;5097476;27;48386;-77
2023/12/08 02:32:20;;;;;;;;;11.33;11.33;;;;;;;;5098325;27;45362;-77
2023/12/08 02:34:47;;;;;;;;;13.33;12.00;;;;;;;;5079895;28;45344;-77
2023/12/08 02:37:13;;;;;;;;;14.67;14.67;;;;;;;;5097026;27;47120;-77
2023/12/08 02:39:39;;;;;;;;;17.00;14.00;;;;;;;;5080981;27;45498;-77
2023/12/08 02:42:04;;;;;;;;;13.00;10.67;;;;;;;;5081736;27;45268;-77
2023/12/08 02:44:29;;;;;;;;;14.33;14.00;;;;;;;;5097770;27;45236;-77
2023/12/08 02:46:54;;;;;;;;;14.00;13.00;;;;;;;;5083115;27;45539;-77
2023/12/08 02:49:20;;;;;;;;;16.00;12.33;;;;;;;;5096301;27;48429;-77
2023/12/08 02:51:45;;;;;;;;;13.33;12.67;;;;;;;;5097238;27;45976;-79
2023/12/08 02:54:10;;;;;;;;;11.67;11.67;;;;;;;;5081947;27;45313;-77
2023/12/08 02:56:35;;;;;;;;;14.67;13.67;;;;;;;;5080793;28;45456;-77
2023/12/08 02:59:00;;;;;;;;;13.00;13.00;;;;;;;;5081058;28;45314;-77
2023/12/08 03:01:26;;;;;;;;;17.67;13.00;;;;;;;;5080780;28;45239;-77
2023/12/08 03:03:51;;;;;;;;;13.33;12.33;;;;;;;;5079364;28;45376;-77
2023/12/08 03:06:16;;;;;;;;;13.00;13.00;;;;;;;;5062662;28;45745;-77
2023/12/08 03:08:42;;;;;;;;;15.67;15.33;;;;;;;;5080774;28;45413;-77
2023/12/08 03:11:07;;;;;;;;;17.33;14.67;;;;;;;;5080489;28;45364;-76
2023/12/08 03:13:32;;;;;;;;;16.33;15.00;;;;;;;;5080891;28;45238;-77
2023/12/08 03:15:57;;;;;;;;;17.67;15.00;;;;;;;;5080592;28;45299;-77
2023/12/08 03:18:23;;;;;;;;;15.00;15.00;;;;;;;;5079220;28;47023;-77
2023/12/08 03:20:48;;;;;;;;;21.00;15.00;;;;;;;;5080759;28;45294;-77
2023/12/08 03:23:13;;;;;;;;;21.00;17.67;;;;;;;;5080700;28;45308;-77
2023/12/08 03:25:38;;;;;;;;;16.00;14.67;;;;;;;;5080335;28;45298;-76
2023/12/08 03:28:03;;;;;;;;;15.33;13.33;;;;;;;;5078159;28;48323;-77
2023/12/08 03:30:28;;;;;;;;;19.33;18.00;;;;;;;;5080547;28;45451;-77
2023/12/08 03:32:53;;;;;;;;;18.33;16.33;;;;;;;;5080618;28;45356;-76
2023/12/08 03:35:20;;;;;;;;;14.00;11.67;;;;;;;;5080063;28;45320;-77
2023/12/08 03:37:45;;;;;;;;;20.33;16.67;;;;;;;;5080192;28;45352;-76
2023/12/08 03:40:10;;;;;;;;;16.00;14.67;;;;;;;;5080144;28;45296;-77
2023/12/08 03:42:36;;;;;;;;;15.00;14.00;;;;;;;;5080243;28;45449;-78
2023/12/08 03:45:02;;;;;;;;;15.00;14.00;;;;;;;;5078707;28;46004;-77
2023/12/08 03:47:27;;;;;;;;;17.67;14.33;;;;;;;;5079884;28;47223;-77
2023/12/08 03:49:53;;;;;;;;;17.67;16.67;;;;;;;;5061406;28;45508;-77
2023/12/08 03:52:18;;;;;;;;;20.67;16.00;;;;;;;;5080183;28;45649;-77
2023/12/08 03:54:43;;;;;;;;;19.33;17.67;;;;;;;;5079857;28;45350;-77
2023/12/08 03:57:08;;;;;;;;;20.33;16.00;;;;;;;;5079871;28;46151;-77
2023/12/08 03:59:33;;;;;;;;;18.00;17.00;;;;;;;;5080271;27;45416;-77
2023/12/08 04:01:58;;;;;;;;;17.67;14.33;;;;;;;;5080082;27;45249;-77
2023/12/08 04:04:24;;;;;;;;;16.00;13.67;;;;;;;;5095379;27;47102;-77
2023/12/08 04:06:49;;;;;;;;;20.67;17.67;;;;;;;;5080812;27;45214;-77
2023/12/08 04:09:14;;;;;;;;;17.33;17.33;;;;;;;;5080168;27;45215;-77
2023/12/08 04:11:39;;;;;;;;;15.67;14.67;;;;;;;;5080241;27;45223;-77
2023/12/08 04:14:04;;;;;;;;;20.33;18.00;;;;;;;;5080330;27;45318;-77
2023/12/08 04:16:29;;;;;;;;;18.00;16.00;;;;;;;;5096319;27;48393;-76
2023/12/08 04:18:55;;;;;;;;;11.33;9.67;;;;;;;;5081547;27;45222;-77
2023/12/08 04:21:20;;;;;;;;;18.00;15.33;;;;;;;;5081536;27;45216;-77
2023/12/08 04:23:45;;;;;;;;;16.33;15.67;;;;;;;;5080663;27;45231;-76
2023/12/08 04:26:10;;;;;;;;;22.00;18.33;;;;;;;;5095785;27;47534;-76
2023/12/08 04:28:36;;;;;;;;;15.00;14.00;;;;;;;;5079884;27;45332;-77
2023/12/08 04:31:01;;;;;;;;;20.67;17.00;;;;;;;;5079881;27;45234;-77
2023/12/08 04:33:27;;;;;;;;;20.33;20.33;;;;;;;;5079459;27;45204;-77
2023/12/08 04:35:52;;;;;;;;;17.00;15.50;;;;;;;;5080437;27;46227;-77
2023/12/08 04:38:17;;;;;;;;;19.00;17.33;;;;;;;;5081304;27;45303;-77
2023/12/08 04:40:42;;;;;;;;;17.67;16.67;;;;;;;;5084110;27;45179;-77
2023/12/08 04:43:07;;;;;;;;;17.00;14.33;;;;;;;;5098835;27;45907;-78
2023/12/08 04:45:32;;;;;;;;;18.33;17.33;;;;;;;;5083387;27;47018;-77
2023/12/08 04:47:58;;;;;;;;;18.00;15.00;;;;;;;;5083682;28;45348;-77
2023/12/08 04:50:23;;;;;;;;;24.67;18.33;;;;;;;;5082971;28;45355;-77
2023/12/08 04:52:48;;;;;;;;;17.00;15.00;;;;;;;;5098815;27;47358;-77
2023/12/08 04:55:13;;;;;;;;;17.00;15.67;;;;;;;;5098815;27;48208;-77
2023/12/08 04:57:38;;;;;;;;;10.33;10.33;;;;;;;;5082915;27;45683;-77
2023/12/08 05:00:05;;;;;;;;;18.00;18.00;;;;;;;;5082712;28;45381;-77
2023/12/08 05:02:30;;;;;;;;;16.33;15.00;;;;;;;;5082650;28;45315;-77
2023/12/08 05:04:55;;;;;;;;;15.33;14.67;;;;;;;;5083054;28;45404;-77
2023/12/08 05:07:20;;;;;;;;;17.33;16.33;;;;;;;;5083410;28;45386;-77
2023/12/08 05:09:45;;;;;;;;;24.00;16.67;;;;;;;;5082820;28;45373;-77
2023/12/08 05:12:11;;;;;;;;;16.67;15.00;;;;;;;;5082903;28;45478;-77
2023/12/08 05:14:36;;;;;;;;;15.67;15.00;;;;;;;;5082504;28;46661;-77
2023/12/08 05:17:01;;;;;;;;;17.33;16.00;;;;;;;;5082877;28;45315;-77
2023/12/08 05:19:26;;;;;;;;;17.67;13.67;;;;;;;;5083182;28;45336;-77
2023/12/08 05:21:52;;;;;;;;;15.33;14.00;;;;;;;;5083031;28;45460;-78
2023/12/08 05:24:17;;;;;;;;;14.00;11.33;;;;;;;;5081756;28;47410;-77
2023/12/08 05:26:42;;;;;;;;;17.00;16.67;;;;;;;;5081132;28;45409;-77
2023/12/08 05:29:08;;;;;;;;;15.00;13.67;;;;;;;;5082820;28;45399;-77
2023/12/08 05:31:33;;;;;;;;;14.67;12.33;;;;;;;;5082556;28;45377;-77
2023/12/08 05:33:58;;;;;;;;;16.00;13.00;;;;;;;;5082026;28;45358;-77
2023/12/08 05:36:23;;;;;;;;;17.67;16.00;;;;;;;;5081038;28;45309;-77
2023/12/08 05:38:48;;;;;;;;;16.00;14.00;;;;;;;;5082124;28;45493;-78
2023/12/08 05:41:13;;;;;;;;;18.33;15.00;;;;;;;;5080935;28;45308;-77
2023/12/08 05:43:39;;;;;;;;;14.33;14.00;;;;;;;;5079807;28;47280;-77
2023/12/08 05:46:04;;;;;;;;;17.67;13.67;;;;;;;;5076109;28;45324;-77
2023/12/08 05:48:29;;;;;;;;;17.67;15.67;;;;;;;;5084375;28;45256;-77
2023/12/08 05:50:55;;;;;;;;;19.67;15.33;;;;;;;;5083285;28;45256;-77
2023/12/08 05:53:20;;;;;;;;;9.33;9.33;;;;;;;;5064071;28;47102;-77
2023/12/08 05:55:46;;;;;;;;;19.67;17.33;;;;;;;;5082906;28;45265;-77
2023/12/08 05:58:11;;;;;;;;;10.33;9.33;;;;;;;;5083310;28;45393;-77
2023/12/08 06:00:36;;;;;;;;;20.00;16.00;;;;;;;;5083461;27;45149;-77
2023/12/08 06:03:01;;;;;;;;;16.67;13.33;;;;;;;;5082085;27;46547;-77
2023/12/08 06:05:26;;;;;;;;;16.00;15.00;;;;;;;;5082141;27;45377;-77
2023/12/08 06:07:52;;;;;;;;;14.33;14.33;;;;;;;;5080349;28;45303;-77
2023/12/08 06:10:17;;;;;;;;;15.00;14.00;;;;;;;;5081826;28;45480;-78
2023/12/08 06:12:42;;;;;;;;;22.33;17.00;;;;;;;;5081583;28;46620;-77
2023/12/08 06:15:09;;;;;;;;;19.00;17.67;;;;;;;;5081826;28;45282;-78
2023/12/08 06:17:35;;;;;;;;;19.67;16.33;;;;;;;;5082088;28;45303;-78
2023/12/08 06:20:00;;;;;;;;;20.33;16.00;;;;;;;;5081377;28;45406;-78
2023/12/08 06:22:25;;;;;;;;;22.00;17.67;;;;;;;;5081464;28;45406;-77
2023/12/08 06:24:50;;;;;;;;;19.67;18.33;;;;;;;;5081135;28;45373;-77
2023/12/08 06:27:15;;;;;;;;;19.67;18.00;;;;;;;;5080441;28;45548;-79
2023/12/08 06:29:40;;;;;;;;;14.67;14.33;;;;;;;;5081354;28;45485;-77
2023/12/08 06:32:06;;;;;;;;;17.67;14.67;;;;;;;;5081143;28;45397;-78
2023/12/08 06:34:31;;;;;;;;;17.00;17.00;;;;;;;;5082421;28;45342;-77
2023/12/08 06:36:56;;;;;;;;;20.00;19.00;;;;;;;;5082352;28;45505;-77
2023/12/08 06:39:22;;;;;;;;;18.33;18.00;;;;;;;;5082011;28;45449;-77
2023/12/08 06:41:47;;;;;;;;;17.67;17.00;;;;;;;;5062475;28;48065;-76
2023/12/08 06:44:12;;;;;;;;;21.33;19.00;;;;;;;;5063403;28;45336;-76
2023/12/08 06:46:38;;;;;;;;;20.67;18.33;;;;;;;;5082574;28;45496;-76
2023/12/08 06:49:03;;;;;;;;;15.67;14.00;;;;;;;;5081921;28;45413;-76
2023/12/08 06:51:28;;;;;;;;;20.67;19.00;;;;;;;;5080918;28;47206;-77
2023/12/08 06:53:53;;;;;;;;;23.33;19.67;;;;;;;;5082970;28;45390;-77
2023/12/08 06:56:21;;;;;;;;;21.00;19.67;;;;;;;;5065024;28;45301;-78
2023/12/08 06:58:46;;;;;;;;;16.67;16.67;;;;;;;;5086813;28;45314;-78
2023/12/08 07:01:11;;;;;;;;;22.33;20.33;;;;;;;;5084216;27;45448;-78
2023/12/08 07:03:36;;;;;;;;;19.33;17.33;;;;;;;;5081331;27;45228;-78
2023/12/08 07:06:01;;;;;;;;;20.33;18.67;;;;;;;;5082803;27;45310;-79
2023/12/08 07:08:27;;;;;;;;;18.67;17.67;;;;;;;;5096936;27;45765;-79
2023/12/08 07:10:52;;;;;;;;;19.00;16.67;;;;;;;;5081360;28;46383;-79
2023/12/08 07:13:17;;;;;;;;;15.00;14.33;;;;;;;;5080562;27;45405;-79
2023/12/08 07:15:42;;;;;;;;;14.00;11.33;;;;;;;;5083038;28;45297;-77
2023/12/08 07:18:07;;;;;;;;;15.00;14.67;;;;;;;;5079323;28;47001;-78
2023/12/08 07:20:34;;;;;;;;;13.33;13.00;;;;;;;;5100865;27;46358;-79
2023/12/08 07:22:59;;;;;;;;;18.00;16.67;;;;;;;;5101549;27;45380;-76
2023/12/08 07:25:24;;;;;;;;;13.67;11.33;;;;;;;;5100116;27;45311;-78
2023/12/08 07:27:51;;;;;;;;;15.00;13.33;;;;;;;;5088644;27;46333;-76
2023/12/08 07:30:16;;;;;;;;;16.33;14.67;;;;;;;;5080523;28;46004;-79
2023/12/08 07:32:41;;;;;;;;;19.33;18.00;;;;;;;;5078849;28;45286;-78
2023/12/08 07:35:07;;;;;;;;;17.33;15.67;;;;;;;;5079950;28;45244;-78
2023/12/08 07:37:32;;;;;;;;;20.00;14.33;;;;;;;;5062095;28;46423;-78
2023/12/08 07:39:58;;;;;;;;;17.67;16.67;;;;;;;;5080967;28;46224;-78
2023/12/08 07:42:23;;;;;;;;;17.67;16.33;;;;;;;;5080938;28;45358;-78
2023/12/08 07:44:48;;;;;;;;;19.67;18.00;;;;;;;;5083966;28;45556;-77
2023/12/08 07:47:13;;;;;;;;;24.33;19.33;;;;;;;;5079580;28;45557;-77
2023/12/08 07:49:38;;;;;;;;;18.00;16.67;;;;;;;;5080179;28;45593;-77
2023/12/08 07:52:03;;;;;;;;;16.67;15.67;;;;;;;;5083128;28;45525;-77
2023/12/08 07:54:32;;;;;;;;;22.00;18.33;;;;;;;;5075193;28;45520;-78
2023/12/08 07:56:57;;;;;;;;;26.33;19.33;;;;;;;;5061247;28;47215;-78
2023/12/08 07:59:22;;;;;;;;;24.33;21.67;;;;;;;;5077209;28;46406;-78
2023/12/08 08:01:47;;;;;;;;;23.33;20.00;;;;;;;;5080156;28;45412;-77
2023/12/08 08:04:12;;;;;;;;;20.33;18.33;;;;;;;;5082060;28;45288;-77
2023/12/08 08:06:37;;;;;;;;;14.67;14.67;;;;;;;;5062499;28;46020;-77
2023/12/08 08:09:03;;;;;;;;;18.33;18.33;;;;;;;;5080190;28;45190;-78
2023/12/08 08:11:28;;;;;;;;;23.67;21.67;;;;;;;;5080303;28;45274;-78
2023/12/08 08:13:54;;;;;;;;;16.67;16.67;;;;;;;;5061033;28;45308;-78
2023/12/08 08:16:19;;;;;;;;;26.33;19.00;;;;;;;;5078812;28;45339;-78
2023/12/08 08:18:44;;;;;;;;;17.33;14.33;;;;;;;;5079076;28;48319;-78
2023/12/08 08:21:09;;;;;;;;;23.67;21.33;;;;;;;;5077171;28;45596;-77
2023/12/08 08:23:34;;;;;;;;;21.67;18.67;;;;;;;;5063669;28;45384;-78
2023/12/08 08:26:00;;;;;;;;;21.67;19.00;;;;;;;;5082922;28;45779;-78
2023/12/08 08:28:26;;;;;;;;;17.67;12.33;;;;;;;;5081656;28;46209;-78
2023/12/08 08:30:51;;;;;;;;;17.67;17.67;;;;;;;;5062996;28;46097;-77
2023/12/08 08:33:16;;;;;;;;;17.67;16.67;;;;;;;;5065168;28;45453;-76
2023/12/08 08:35:41;;;;;;;;;25.67;23.67;;;;;;;;5082756;28;45324;-77
2023/12/08 08:38:07;;;;;;;;;19.00;17.33;;;;;;;;5060560;28;46337;-77
2023/12/08 08:40:32;;;;;;;;;15.67;14.33;;;;;;;;5079460;28;45280;-77
2023/12/08 08:42:57;;;;;;;;;25.33;22.00;;;;;;;;5086415;28;45212;-78
2023/12/08 08:45:22;;;;;;;;;25.00;19.00;;;;;;;;5080710;28;45434;-77
2023/12/08 08:47:48;;;;;;;;;18.67;15.00;;;;;;;;5082348;28;45391;-77
2023/12/08 08:50:13;;;;;;;;;20.67;20.67;;;;;;;;5082655;28;45457;-77
2023/12/08 08:52:38;;;;;;;;;19.33;18.00;;;;;;;;5083005;27;45328;-78
2023/12/08 08:55:04;;;;;;;;;24.00;21.67;;;;;;;;5075233;27;45862;-77
2023/12/08 08:57:29;;;;;;;;;22.67;20.00;;;;;;;;5093425;27;45420;-77
2023/12/08 08:59:54;;;;;;;;;26.00;23.67;;;;;;;;5088069;27;46189;-76
2023/12/08 09:02:19;;;;;;;;;18.00;17.67;;;;;;;;5083766;28;45184;-78
2023/12/08 09:04:45;;;;;;;;;20.33;19.33;;;;;;;;5093887;27;46420;-78
2023/12/08 09:07:10;;;;;;;;;17.67;17.33;;;;;;;;5094560;27;46486;-77
2023/12/08 09:09:35;;;;;;;;;23.67;21.67;;;;;;;;5063809;27;46455;-76
2023/12/08 09:12:00;;;;;;;;;25.67;25.67;;;;;;;;5066051;27;45296;-79
2023/12/08 09:14:27;;;;;;;;;16.00;13.67;;;;;;;;5054740;27;47159;-77
2023/12/08 09:16:52;;;;;;;;;22.00;20.33;;;;;;;;5073251;27;48308;-76
2023/12/08 09:19:17;;;;;;;;;18.00;17.00;;;;;;;;5076161;28;45417;-77
2023/12/08 09:21:43;;;;;;;;;21.33;19.33;;;;;;;;5077470;28;45358;-76
2023/12/08 09:24:08;;;;;;;;;20.67;18.67;;;;;;;;5075731;28;47260;-77
2023/12/08 09:26:33;;;;;;;;;18.67;18.00;;;;;;;;5061981;28;46272;-77
2023/12/08 09:28:58;;;;;;;;;17.67;17.00;;;;;;;;5072369;28;45558;-77
2023/12/08 09:31:23;;;;;;;;;15.33;12.00;;;;;;;;5080648;28;45339;-78
2023/12/08 09:33:48;;;;;;;;;18.33;16.67;;;;;;;;5080434;28;45622;-77
2023/12/08 09:36:14;;;;;;;;;20.33;18.00;;;;;;;;5081102;28;45325;-76
2023/12/08 09:38:39;;;;;;;;;21.67;18.67;;;;;;;;5081067;28;45357;-76
2023/12/08 09:41:05;;;;;;;;;17.33;15.00;;;;;;;;5081814;28;45383;-77
2023/12/08 09:43:49;;;;;;;;;17.67;14.67;;;;;;;;5081599;28;45446;-77
2023/12/08 09:46:14;;;;;;;;;20.00;19.00;;;;;;;;5080190;28;47204;-76
2023/12/08 09:48:40;;;;;;;;;17.00;15.33;;;;;;;;5063187;28;45680;-76
2023/12/08 09:51:07;;;;;;;;;18.67;18.33;;;;;;;;5082977;28;45437;-76
2023/12/08 09:53:32;;;;;;;;;18.33;16.33;;;;;;;;5081193;28;45488;-77
2023/12/08 09:55:57;;;;;;;;;28.00;23.67;;;;;;;;5063435;28;46097;-77
2023/12/08 09:58:25;;;;;;;;;20.33;17.67;;;;;;;;5080896;28;45389;-78
2023/12/08 10:00:50;;;;;;;;;24.33;20.00;;;;;;;;5063524;28;45728;-77
2023/12/08 10:03:15;;;;;;;;;22.33;20.00;;;;;;;;5080917;28;45353;-79
2023/12/08 10:05:40;;;;;;;;;16.00;14.33;;;;;;;;5074052;27;46186;-78
2023/12/08 10:08:08;;;;;;;;;17.00;15.67;;;;;;;;5077904;28;45428;-78
2023/12/08 10:10:33;;;;;;;;;17.33;16.67;;;;;;;;5079458;28;45396;-79
2023/12/08 10:12:58;;;;;;;;;22.00;21.67;;;;;;;;5080430;28;45269;-77
2023/12/08 10:15:24;;;;;;;;;20.00;18.67;;;;;;;;5078965;28;47074;-78
2023/12/08 10:17:50;;;;;;;;;16.00;15.33;;;;;;;;5079788;28;45464;-77
2023/12/08 10:20:16;;;;;;;;;18.00;14.33;;;;;;;;5080523;28;45351;-76
2023/12/08 10:22:45;;;;;;;;;15.67;13.00;;;;;;;;5079365;28;46510;-76
2023/12/08 10:25:10;;;;;;;;;21.00;16.33;;;;;;;;5079996;28;45468;-76
2023/12/08 10:27:35;;;;;;;;;17.00;15.00;;;;;;;;5078890;28;45374;-77
2023/12/08 10:30:02;;;;;;;;;19.67;16.00;;;;;;;;5079886;28;45292;-77
2023/12/08 10:32:27;;;;;;;;;15.67;14.33;;;;;;;;5061883;28;46292;-78
2023/12/08 10:34:52;;;;;;;;;21.33;19.33;;;;;;;;5079818;28;45386;-78
2023/12/08 10:37:17;;;;;;;;;15.67;13.33;;;;;;;;5077540;28;45266;-78
2023/12/08 10:39:42;;;;;;;;;22.33;17.00;;;;;;;;5079923;28;45214;-78
2023/12/08 10:42:09;;;;;;;;;20.33;14.67;;;;;;;;5079846;28;45278;-79
2023/12/08 10:44:36;;;;;;;;;17.33;16.00;;;;;;;;5078357;28;47639;-79
2023/12/08 10:47:02;;;;;;;;;10.33;10.00;;;;;;;;5061200;28;45308;-79
2023/12/08 10:49:28;;;;;;;;;11.00;9.33;;;;;;;;5061906;28;45700;-77
2023/12/08 10:51:54;;;;;;;;;9.67;9.67;;;;;;;;5080640;28;45472;-78
2023/12/08 10:54:19;;;;;;;;;10.67;10.33;;;;;;;;5061829;28;47268;-79
2023/12/08 10:56:45;;;;;;;;;14.00;12.00;;;;;;;;5060372;28;46229;-78
2023/12/08 10:59:11;;;;;;;;;11.33;11.00;;;;;;;;5079131;28;45332;-78
2023/12/08 11:01:37;;;;;;;;;16.00;11.00;;;;;;;;5061871;28;47156;-82
2023/12/08 11:04:03;;;;;;;;;16.00;14.00;;;;;;;;5062040;28;47460;-79
2023/12/08 11:06:33;;;;;;;;;13.33;12.00;;;;;;;;5078970;28;45382;-78
2023/12/08 11:09:00;;;;;;;;;16.00;15.33;;;;;;;;5079830;28;45434;-79
2023/12/08 11:11:27;;;;;;;;;17.67;17.67;;;;;;;;5080507;28;45221;-79
2023/12/08 11:13:56;;;;;;;;;12.00;11.00;;;;;;;;5080472;28;46305;-79
2023/12/08 11:16:31;;;;;;;;;17.33;16.00;;;;;;;;5080450;28;45362;-81
2023/12/08 11:18:56;;;;;;;;;14.67;14.00;;;;;;;;5078816;28;45367;-79
2023/12/08 11:21:22;;;;;;;;;18.00;16.00;;;;;;;;5078939;28;45545;-79
2023/12/08 11:23:48;;;;;;;;;19.67;14.67;;;;;;;;5061596;28;47039;-78
2023/12/08 11:26:32;;;;;;;;;19.33;16.67;;;;;;;;5080322;28;45296;-80
2023/12/08 11:29:16;;;;;;;;;16.67;16.67;;;;;;;;5078853;28;45533;-80
2023/12/08 11:31:41;;;;;;;;;17.67;15.33;;;;;;;;5079630;28;45724;-79
2023/12/08 11:34:18;;;;;;;;;17.25;16.00;;;;;;;;5061253;28;46996;-79
2023/12/08 11:36:44;;;;;;;;;16.67;16.67;;;;;;;;5080228;28;45496;-80
2023/12/08 11:39:28;;;;;;;;;26.33;21.33;;;;;;;;5080024;28;45340;-79
2023/12/08 11:41:53;;;;;;;;;25.67;18.00;;;;;;;;5079812;28;45562;-79
2023/12/08 11:44:19;;;;;;;;;14.33;13.67;;;;;;;;5078661;28;46155;-79
2023/12/08 11:46:44;;;;;;;;;16.00;16.00;;;;;;;;5061912;28;45278;-78
2023/12/08 11:49:11;;;;;;;;;17.33;14.67;;;;;;;;5078660;28;45333;-79
2023/12/08 11:51:36;;;;;;;;;19.00;16.67;;;;;;;;5078725;28;46939;-80
2023/12/08 11:54:05;;;;;;;;;19.33;17.67;;;;;;;;5079773;28;46687;-79
2023/12/08 11:56:43;;;;;;;;;19.00;16.33;;;;;;;;5078434;28;45274;-80
2023/12/08 11:59:12;;;;;;;;;15.00;15.00;;;;;;;;5079654;27;45485;-79
2023/12/08 12:01:41;;;;;;;;;19.33;18.00;;;;;;;;5095376;27;46657;-78
2023/12/08 12:04:08;;;;;;;;;15.33;15.00;;;;;;;;5079211;28;45443;-79
2023/12/08 12:06:34;;;;;;;;;15.00;14.67;;;;;;;;5079889;28;45320;-79
2023/12/08 12:08:59;;;;;;;;;14.67;14.67;;;;;;;;5078609;28;45327;-78
2023/12/08 12:11:26;;;;;;;;;21.00;21.00;;;;;;;;5061222;28;47528;-78
2023/12/08 12:13:55;;;;;;;;;15.67;15.67;;;;;;;;5079476;28;46175;-79
2023/12/08 12:16:21;;;;;;;;;17.33;15.00;;;;;;;;5077846;28;45395;-79
2023/12/08 12:18:46;;;;;;;;;17.67;16.33;;;;;;;;5078259;28;45307;-78
2023/12/08 12:21:14;;;;;;;;;18.00;14.67;;;;;;;;5078173;28;45687;-79
2023/12/08 12:23:39;;;;;;;;;16.67;16.67;;;;;;;;5077311;28;48332;-77
2023/12/08 12:26:09;;;;;;;;;20.33;17.33;;;;;;;;5077012;28;45328;-79
2023/12/08 12:28:34;;;;;;;;;13.33;13.33;;;;;;;;5060436;28;45457;-79
2023/12/08 12:30:59;;;;;;;;;13.00;13.00;;;;;;;;5077994;28;46997;-79
2023/12/08 12:33:24;;;;;;;;;14.00;14.00;;;;;;;;5079291;28;46385;-79
2023/12/08 12:35:50;;;;;;;;;15.33;14.67;;;;;;;;5078306;28;45393;-79
2023/12/08 12:38:17;;;;;;;;;17.67;15.33;;;;;;;;5079579;28;45321;-78
2023/12/08 12:40:42;;;;;;;;;18.00;16.33;;;;;;;;5079460;28;45264;-79
2023/12/08 12:43:08;;;;;;;;;16.00;15.00;;;;;;;;5079348;28;45252;-79
2023/12/08 12:45:34;;;;;;;;;18.33;17.33;;;;;;;;5077906;28;45563;-79
2023/12/08 12:48:03;;;;;;;;;20.67;18.00;;;;;;;;5079504;28;45342;-80
2023/12/08 12:50:28;;;;;;;;;16.33;15.33;;;;;;;;5078193;28;45538;-79
2023/12/08 12:53:03;;;;;;;;;12.67;12.67;;;;;;;;5076783;28;48107;-80
2023/12/08 12:55:28;;;;;;;;;15.67;13.00;;;;;;;;5077181;28;45514;-80
2023/12/08 12:57:53;;;;;;;;;15.33;14.67;;;;;;;;5078549;28;45389;-80
2023/12/08 13:00:35;;;;;;;;;14.00;14.00;;;;;;;;5078697;28;45517;-80
2023/12/08 13:03:13;;;;;;;;;14.67;14.67;;;;;;;;5071488;28;46322;-81
2023/12/08 13:05:55;;;;;;;;;14.67;12.67;;;;;;;;5062161;28;45388;-80
2023/12/08 13:08:21;;;;;;;;;14.00;13.67;;;;;;;;5079330;28;45624;-80
2023/12/08 13:10:46;;;;;;;;;19.00;16.33;;;;;;;;5081091;28;45358;-81
2023/12/08 13:13:14;;;;;;;;;18.00;16.67;;;;;;;;5080346;28;46596;-82
2023/12/08 13:15:40;;;;;;;;;19.33;17.33;;;;;;;;5081458;28;45358;-82
2023/12/08 13:18:06;;;;;;;;;18.67;18.33;;;;;;;;5081187;28;45483;-83
2023/12/08 13:20:31;;;;;;;;;19.67;18.67;;;;;;;;5079617;28;47371;-83
2023/12/08 13:22:56;;;;;;;;;19.67;17.33;;;;;;;;5080455;28;45554;-82
2023/12/08 13:25:21;;;;;;;;;21.00;20.00;;;;;;;;5062290;28;45733;-82
2023/12/08 13:27:47;;;;;;;;;19.67;17.67;;;;;;;;5080131;28;45477;-81
2023/12/08 13:30:12;;;;;;;;;19.67;18.67;;;;;;;;5080496;28;45805;-80
2023/12/08 13:32:37;;;;;;;;;16.33;15.67;;;;;;;;5080102;28;46362;-80
2023/12/08 13:35:02;;;;;;;;;18.00;13.50;;;;;;;;5062599;28;46071;-80
2023/12/08 13:37:28;;;;;;;;;13.33;13.33;;;;;;;;5080757;28;46431;-80
2023/12/08 13:39:53;;;;;;;;;15.00;15.00;;;;;;;;5080327;28;45595;-80
2023/12/08 13:42:18;;;;;;;;;15.67;14.33;;;;;;;;5080177;28;46342;-80
2023/12/08 13:44:43;;;;;;;;;16.00;14.67;;;;;;;;5062254;28;45648;-81
2023/12/08 13:47:09;;;;;;;;;13.67;13.33;;;;;;;;5079343;28;45385;-81
2023/12/08 13:49:34;;;;;;;;;13.33;12.33;;;;;;;;5079058;28;45406;-80
2023/12/08 13:51:59;;;;;;;;;15.67;13.67;;;;;;;;5081740;28;46783;-79
2023/12/08 13:54:26;;;;;;;;;12.00;12.00;;;;;;;;5081851;28;45444;-78
2023/12/08 13:56:52;;;;;;;;;12.33;11.33;;;;;;;;5080026;28;45542;-78
2023/12/08 13:59:17;;;;;;;;;13.33;12.33;;;;;;;;5079419;27;45551;-78
2023/12/08 14:01:42;;;;;;;;;16.67;13.67;;;;;;;;5095040;27;47422;-78
2023/12/08 14:04:07;;;;;;;;;13.33;13.00;;;;;;;;5079861;27;45345;-77
2023/12/08 14:06:32;;;;;;;;;15.00;12.00;;;;;;;;5079884;28;45600;-78
2023/12/08 14:08:57;;;;;;;;;14.67;14.00;;;;;;;;5080763;28;45404;-78
2023/12/08 14:11:24;;;;;;;;;12.33;11.67;;;;;;;;5078521;28;45351;-78